Time;durP1;ratioP1;P1;durP2;ratioP2;P2;SDS_P1;SDS_P2;PMS_P1;PMS_P2;Temp;Humidity;BMP_temperature;BMP_pressure;BME280_temperature;BME280_humidity;BME280_pressure;Samples;Min_cycle;Max_cycle;Signal;HPM_P1;HPM_P2
2022/01/01 00:00:28;;;;;;;;;;;22.80;49.90;;;;;;4953106;28;19918;-63
2022/01/01 00:02:54;;;;;;;;;;;22.80;49.90;;;;;;4962781;28;19918;-63
2022/01/01 00:05:20;;;;;;;;;;;22.80;50.00;;;;;;4953403;28;19918;-63
2022/01/01 00:07:45;;;;;;;;;;;22.80;50.00;;;;;;4949030;29;20005;-63
2022/01/01 00:10:11;;;;;;;;;;;22.80;49.90;;;;;;4952313;28;19981;-63
2022/01/01 00:12:36;;;;;;;;;;;22.70;49.90;;;;;;4950645;28;19937;-63
2022/01/01 00:15:02;;;;;;;;;;;22.70;50.10;;;;;;4951943;28;19915;-63
2022/01/01 00:17:27;;;;;;;;;;;22.70;50.20;;;;;;4951661;28;19919;-63
2022/01/01 00:19:53;;;;;;;;;;;22.70;50.40;;;;;;4951633;29;19914;-64
2022/01/01 00:22:18;;;;;;;;;;;22.70;50.50;;;;;;4952257;29;19929;-63
2022/01/01 00:24:44;;;;;;;;;;;22.70;50.50;;;;;;4953352;28;19918;-63
2022/01/01 00:27:09;;;;;;;;;;;22.70;50.50;;;;;;4980728;28;19923;-63
2022/01/01 00:29:35;;;;;;;;;;;22.70;50.60;;;;;;4951442;28;19977;-63
2022/01/01 00:32:00;;;;;;;;;;;22.60;50.50;;;;;;4977098;28;19919;-63
2022/01/01 00:34:26;;;;;;;;;;;22.60;50.70;;;;;;4946373;28;20442;-63
2022/01/01 00:36:51;;;;;;;;;;;22.60;50.70;;;;;;4941025;29;19918;-63
2022/01/01 00:39:17;;;;;;;;;;;22.60;50.90;;;;;;4952421;28;19946;-63
2022/01/01 00:41:43;;;;;;;;;;;22.50;50.90;;;;;;4948593;29;20005;-63
2022/01/01 00:44:08;;;;;;;;;;;22.50;51.80;;;;;;4950987;29;19937;-63
2022/01/01 00:46:34;;;;;;;;;;;22.50;51.60;;;;;;4951893;29;19918;-63
2022/01/01 00:48:59;;;;;;;;;;;22.40;51.30;;;;;;4983507;28;20354;-63
2022/01/01 00:51:24;;;;;;;;;;;22.40;51.20;;;;;;4952164;29;19918;-63
2022/01/01 00:53:50;;;;;;;;;;;22.40;51.00;;;;;;4952239;29;20325;-63
2022/01/01 00:56:16;;;;;;;;;;;22.30;51.10;;;;;;4952317;29;19918;-63
2022/01/01 00:58:41;;;;;;;;;;;22.30;51.20;;;;;;4946669;29;19986;-63
2022/01/01 01:01:07;;;;;;;;;;;22.30;52.00;;;;;;4984594;28;19919;-63
2022/01/01 01:03:33;;;;;;;;;;;22.20;51.30;;;;;;4955418;28;20379;-63
2022/01/01 01:06:01;;;;;;;;;;;22.10;51.50;;;;;;4956581;29;19919;-63
2022/01/01 01:08:27;;;;;;;;;;;22.00;51.70;;;;;;4956467;29;20295;-63
2022/01/01 01:10:52;;;;;;;;;;;21.90;51.70;;;;;;4987422;28;19942;-62
2022/01/01 01:13:19;;;;;;;;;;;21.80;51.90;;;;;;4954435;28;20459;-63
2022/01/01 01:15:46;;;;;;;;;;;21.70;51.80;;;;;;4982008;28;21304;-63
2022/01/01 01:18:12;;;;;;;;;;;21.70;52.20;;;;;;4955662;29;19918;-63
2022/01/01 01:20:37;;;;;;;;;;;21.70;52.10;;;;;;4956199;28;20342;-63
2022/01/01 01:23:03;;;;;;;;;;;21.80;52.00;;;;;;4986923;28;19969;-63
2022/01/01 01:25:31;;;;;;;;;;;21.90;52.20;;;;;;4955715;29;19922;-63
2022/01/01 01:28:06;;;;;;;;;;;21.90;52.10;;;;;;4955719;28;20014;-63
2022/01/01 01:30:31;;;;;;;;;;;21.80;52.20;;;;;;4957037;28;19918;-62
2022/01/01 01:32:56;;;;;;;;;;;21.80;52.20;;;;;;4955632;29;19920;-62
2022/01/01 01:35:22;;;;;;;;;;;21.80;52.20;;;;;;4957533;29;19917;-63
2022/01/01 01:37:47;;;;;;;;;;;21.80;52.30;;;;;;4970052;28;20375;-62
2022/01/01 01:40:13;;;;;;;;;;;21.80;52.20;;;;;;4955911;29;19977;-63
2022/01/01 01:42:38;;;;;;;;;;;21.70;52.30;;;;;;4985845;28;20075;-62
2022/01/01 01:45:04;;;;;;;;;;;21.70;52.30;;;;;;4955681;29;19918;-62
2022/01/01 01:47:32;;;;;;;;;;;21.70;52.50;;;;;;4954929;28;19915;-63
2022/01/01 01:49:58;;;;;;;;;;;21.70;52.60;;;;;;4956279;29;20414;-63
2022/01/01 01:52:25;;;;;;;;;;;21.70;52.60;;;;;;4955254;28;19992;-62
2022/01/01 01:54:50;;;;;;;;;;;21.70;52.60;;;;;;4986956;28;19918;-63
2022/01/01 01:57:16;;;;;;;;;;;21.60;52.50;;;;;;4955359;29;20406;-63
2022/01/01 01:59:41;;;;;;;;;;;21.60;52.70;;;;;;4987557;28;20407;-63
2022/01/01 02:02:07;;;;;;;;;;;21.60;52.60;;;;;;4955714;29;19914;-62
2022/01/01 02:04:32;;;;;;;;;;;21.60;52.60;;;;;;4955771;28;19911;-62
2022/01/01 02:06:58;;;;;;;;;;;21.60;52.70;;;;;;4954930;29;19914;-62
2022/01/01 02:09:23;;;;;;;;;;;21.60;52.70;;;;;;4955568;29;19932;-63
2022/01/01 02:11:51;;;;;;;;;;;21.50;52.80;;;;;;4956083;28;19961;-62
2022/01/01 02:19:27;;;;;;;;;;;21.50;52.90;;;;;;4987195;28;19914;-62
2022/01/01 02:21:53;;;;;;;;;;;21.40;52.90;;;;;;4985823;28;20270;-63
2022/01/01 02:24:19;;;;;;;;;;;21.40;52.80;;;;;;4955986;28;19942;-62
2022/01/01 02:26:44;;;;;;;;;;;21.50;52.90;;;;;;4955278;29;19940;-63
2022/01/01 02:29:10;;;;;;;;;;;21.50;52.80;;;;;;4955041;29;20379;-63
2022/01/01 02:31:36;;;;;;;;;;;21.60;52.70;;;;;;4955688;28;19919;-62
2022/01/01 02:34:08;;;;;;;;;;;21.60;52.40;;;;;;4986308;28;19973;-62
2022/01/01 02:36:40;;;;;;;;;;;21.80;52.20;;;;;;4984033;28;20487;-62
2022/01/01 02:39:19;;;;;;;;;;;21.90;52.00;;;;;;4967528;28;19923;-63
2022/01/01 02:41:45;;;;;;;;;;;22.00;51.80;;;;;;4954317;29;20316;-63
2022/01/01 02:44:11;;;;;;;;;;;22.10;51.50;;;;;;4955768;28;19969;-62
2022/01/01 02:46:36;;;;;;;;;;;22.20;51.40;;;;;;4954506;28;20005;-63
2022/01/01 02:49:02;;;;;;;;;;;22.30;51.20;;;;;;4955256;29;19914;-63
2022/01/01 02:51:27;;;;;;;;;;;22.30;50.90;;;;;;4954026;28;19961;-63
2022/01/01 02:53:53;;;;;;;;;;;22.40;50.90;;;;;;4955235;29;20006;-63
2022/01/01 02:56:18;;;;;;;;;;;22.50;50.90;;;;;;4953711;29;19937;-63
2022/01/01 02:58:44;;;;;;;;;;;22.50;50.80;;;;;;4955360;29;20016;-63
2022/01/01 03:01:09;;;;;;;;;;;22.50;50.70;;;;;;4954822;29;19910;-63
2022/01/01 03:03:35;;;;;;;;;;;22.50;50.60;;;;;;4955343;28;19921;-63
2022/01/01 03:06:00;;;;;;;;;;;22.50;50.50;;;;;;4985653;28;19915;-63
2022/01/01 03:08:26;;;;;;;;;;;22.60;50.50;;;;;;4954521;29;19934;-63
2022/01/01 03:10:51;;;;;;;;;;;22.60;50.40;;;;;;4954768;29;19915;-63
2022/01/01 03:13:17;;;;;;;;;;;22.60;50.30;;;;;;4954708;29;19914;-63
2022/01/01 03:15:43;;;;;;;;;;;22.60;50.20;;;;;;4952498;28;19914;-63
2022/01/01 03:18:09;;;;;;;;;;;22.60;50.20;;;;;;4954273;28;20311;-63
2022/01/01 03:20:34;;;;;;;;;;;22.70;50.30;;;;;;4954423;28;19921;-63
2022/01/01 03:23:00;;;;;;;;;;;22.70;50.20;;;;;;4952192;28;22076;-63
2022/01/01 03:25:25;;;;;;;;;;;22.70;50.10;;;;;;4954787;29;19915;-63
2022/01/01 03:27:51;;;;;;;;;;;22.70;50.10;;;;;;4953595;29;19946;-63
2022/01/01 03:30:16;;;;;;;;;;;22.70;50.10;;;;;;4985591;28;19997;-63
2022/01/01 03:32:42;;;;;;;;;;;22.70;50.10;;;;;;4953963;29;19918;-63
2022/01/01 03:35:07;;;;;;;;;;;22.70;50.00;;;;;;4954668;29;19911;-63
2022/01/01 03:37:33;;;;;;;;;;;22.70;49.90;;;;;;4952492;28;19929;-63
2022/01/01 03:39:58;;;;;;;;;;;22.70;49.90;;;;;;4985837;28;19914;-63
2022/01/01 03:42:24;;;;;;;;;;;22.70;49.90;;;;;;4953954;28;19936;-63
2022/01/01 03:44:49;;;;;;;;;;;22.80;50.00;;;;;;4954618;28;19918;-63
2022/01/01 03:47:15;;;;;;;;;;;22.80;49.90;;;;;;4952836;29;19921;-63
2022/01/01 03:49:40;;;;;;;;;;;22.80;49.90;;;;;;4953871;29;19972;-63
2022/01/01 03:52:06;;;;;;;;;;;22.80;49.90;;;;;;4952911;29;19929;-63
2022/01/01 03:54:32;;;;;;;;;;;22.80;49.90;;;;;;4954248;29;20056;-63
2022/01/01 03:56:57;;;;;;;;;;;22.80;49.80;;;;;;4953094;28;19919;-63
2022/01/01 03:59:25;;;;;;;;;;;22.80;49.80;;;;;;4954377;29;19938;-63
2022/01/01 04:01:50;;;;;;;;;;;22.80;49.70;;;;;;4953276;29;19925;-63
2022/01/01 04:04:16;;;;;;;;;;;22.80;49.70;;;;;;4947591;29;19915;-63
2022/01/01 04:06:41;;;;;;;;;;;22.80;49.70;;;;;;4952006;29;19922;-63
2022/01/01 04:09:07;;;;;;;;;;;22.80;49.70;;;;;;4954156;29;19922;-63
2022/01/01 04:11:32;;;;;;;;;;;22.80;49.70;;;;;;4953548;29;19914;-63
2022/01/01 04:13:57;;;;;;;;;;;22.80;49.70;;;;;;4953837;29;19918;-63
2022/01/01 04:16:23;;;;;;;;;;;22.80;49.70;;;;;;4951745;29;19918;-63
2022/01/01 04:18:49;;;;;;;;;;;22.80;49.70;;;;;;4953899;28;19941;-63
2022/01/01 04:21:14;;;;;;;;;;;22.70;49.70;;;;;;4983559;28;19921;-63
2022/01/01 04:23:40;;;;;;;;;;;22.70;49.90;;;;;;4954078;28;19921;-63
2022/01/01 04:26:07;;;;;;;;;;;22.60;50.00;;;;;;4952979;28;20013;-63
2022/01/01 04:28:33;;;;;;;;;;;22.50;50.10;;;;;;4954147;29;19911;-63
2022/01/01 04:30:58;;;;;;;;;;;22.50;50.20;;;;;;4953559;28;19953;-63
2022/01/01 04:33:24;;;;;;;;;;;22.50;50.20;;;;;;4953701;29;19910;-63
2022/01/01 04:35:49;;;;;;;;;;;22.50;50.10;;;;;;4951653;28;19914;-63
2022/01/01 04:38:35;;;;;;;;;;;22.50;50.10;;;;;;4939561;29;19915;-63
2022/01/01 04:41:00;;;;;;;;;;;22.60;50.10;;;;;;4953309;29;20287;-63
2022/01/01 04:43:25;;;;;;;;;;;22.50;50.00;;;;;;4952822;29;20021;-63
2022/01/01 04:45:51;;;;;;;;;;;22.60;50.00;;;;;;4953447;29;19921;-62
2022/01/01 04:48:16;;;;;;;;;;;22.60;50.00;;;;;;4952789;29;20001;-63
2022/01/01 04:50:42;;;;;;;;;;;22.60;50.00;;;;;;4953179;29;19914;-63
2022/01/01 04:53:07;;;;;;;;;;;22.60;49.90;;;;;;4952619;29;19915;-63
2022/01/01 04:55:33;;;;;;;;;;;22.60;49.80;;;;;;4984087;28;19915;-63
2022/01/01 04:57:59;;;;;;;;;;;22.60;49.80;;;;;;4952754;28;19981;-63
2022/01/01 05:00:24;;;;;;;;;;;22.70;49.70;;;;;;4984214;28;20009;-63
2022/01/01 05:02:49;;;;;;;;;;;22.70;49.70;;;;;;4953274;29;19911;-63
2022/01/01 05:05:15;;;;;;;;;;;22.70;49.80;;;;;;4952827;28;19921;-62
2022/01/01 05:07:43;;;;;;;;;;;22.70;49.80;;;;;;4952015;28;19914;-63
2022/01/01 05:10:08;;;;;;;;;;;22.70;49.80;;;;;;4952331;28;19930;-63
2022/01/01 05:12:34;;;;;;;;;;;22.70;49.70;;;;;;4944226;29;19915;-63
2022/01/01 05:15:00;;;;;;;;;;;22.70;49.70;;;;;;4934323;29;19914;-63
2022/01/01 05:17:25;;;;;;;;;;;22.60;49.70;;;;;;4945819;29;19918;-63
2022/01/01 05:19:51;;;;;;;;;;;22.70;49.80;;;;;;4953409;29;19910;-63
2022/01/01 05:22:16;;;;;;;;;;;22.70;49.70;;;;;;4952045;29;19919;-63
2022/01/01 05:24:42;;;;;;;;;;;22.60;49.60;;;;;;4951994;28;20001;-63
2022/01/01 05:27:07;;;;;;;;;;;22.70;50.30;;;;;;4951600;29;19911;-63
2022/01/01 05:29:33;;;;;;;;;;;22.70;49.60;;;;;;4953005;29;20005;-63
2022/01/01 05:31:58;;;;;;;;;;;22.70;49.70;;;;;;4953013;29;20395;-63
2022/01/01 05:34:24;;;;;;;;;;;22.70;49.70;;;;;;4952956;29;20446;-63
2022/01/01 05:36:49;;;;;;;;;;;22.70;49.70;;;;;;4952398;29;19941;-63
2022/01/01 05:39:14;;;;;;;;;;;22.70;49.70;;;;;;4984361;28;19919;-63
2022/01/01 05:41:40;;;;;;;;;;;22.70;49.70;;;;;;4952343;29;19914;-63
2022/01/01 05:44:05;;;;;;;;;;;22.70;49.70;;;;;;4983868;28;19915;-63
2022/01/01 05:46:32;;;;;;;;;;;22.70;49.70;;;;;;4953107;28;19969;-63
2022/01/01 05:48:57;;;;;;;;;;;22.70;49.60;;;;;;4957073;29;19911;-63
2022/01/01 05:51:23;;;;;;;;;;;22.70;49.60;;;;;;4986298;28;19926;-63
2022/01/01 05:53:48;;;;;;;;;;;22.70;49.70;;;;;;4956626;29;19915;-63
2022/01/01 05:56:14;;;;;;;;;;;22.70;49.60;;;;;;4956264;29;19914;-63
2022/01/01 05:58:39;;;;;;;;;;;22.70;49.70;;;;;;4956123;29;19914;-63
2022/01/01 06:01:05;;;;;;;;;;;22.70;49.70;;;;;;4955723;29;20002;-63
2022/01/01 06:03:31;;;;;;;;;;;22.70;49.60;;;;;;4955748;29;19910;-63
2022/01/01 06:05:57;;;;;;;;;;;22.70;49.60;;;;;;4945514;29;19919;-63
2022/01/01 06:08:24;;;;;;;;;;;22.70;49.60;;;;;;4986818;28;19922;-63
2022/01/01 06:10:49;;;;;;;;;;;22.70;49.60;;;;;;4955693;29;19949;-63
2022/01/01 06:13:15;;;;;;;;;;;22.70;49.60;;;;;;4956260;29;19953;-63
2022/01/01 06:15:41;;;;;;;;;;;22.70;49.70;;;;;;4970597;28;19981;-63
2022/01/01 06:18:07;;;;;;;;;;;22.60;49.60;;;;;;4955591;28;20335;-63
2022/01/01 06:20:32;;;;;;;;;;;22.60;49.60;;;;;;4955796;29;19915;-63
2022/01/01 06:22:57;;;;;;;;;;;22.60;49.60;;;;;;4955050;29;20685;-63
2022/01/01 06:25:23;;;;;;;;;;;22.60;49.60;;;;;;4956076;29;20267;-63
2022/01/01 06:27:48;;;;;;;;;;;22.60;49.60;;;;;;4955514;29;20291;-63
2022/01/01 06:30:14;;;;;;;;;;;22.70;49.60;;;;;;4955346;28;19914;-63
2022/01/01 06:32:39;;;;;;;;;;;22.60;49.50;;;;;;4955743;29;20001;-63
2022/01/01 06:35:05;;;;;;;;;;;22.60;49.50;;;;;;4955428;29;19925;-63
2022/01/01 06:37:30;;;;;;;;;;;22.60;49.50;;;;;;4954878;28;19922;-64
2022/01/01 06:39:56;;;;;;;;;;;22.70;49.60;;;;;;4953766;29;19929;-63
2022/01/01 06:42:21;;;;;;;;;;;22.60;49.50;;;;;;4955337;29;20317;-63
2022/01/01 06:44:47;;;;;;;;;;;22.70;49.60;;;;;;4955408;29;20367;-63
2022/01/01 06:47:12;;;;;;;;;;;22.70;49.50;;;;;;4955321;29;19910;-63
2022/01/01 06:49:37;;;;;;;;;;;22.70;49.40;;;;;;4955550;29;19914;-63
2022/01/01 06:52:03;;;;;;;;;;;22.70;49.50;;;;;;4954507;29;19958;-63
2022/01/01 06:54:29;;;;;;;;;;;22.70;49.50;;;;;;4952114;28;20302;-64
2022/01/01 06:56:54;;;;;;;;;;;22.70;49.50;;;;;;4955035;29;19942;-63
2022/01/01 06:59:19;;;;;;;;;;;22.70;49.50;;;;;;4954288;28;19921;-63
2022/01/01 07:01:45;;;;;;;;;;;22.70;49.50;;;;;;4954843;28;20410;-63
2022/01/01 07:04:10;;;;;;;;;;;22.60;49.50;;;;;;4955271;29;20385;-63
2022/01/01 07:06:37;;;;;;;;;;;22.70;49.50;;;;;;4954093;29;19918;-63
2022/01/01 07:09:03;;;;;;;;;;;22.70;49.50;;;;;;4970572;28;19929;-63
2022/01/01 07:11:28;;;;;;;;;;;22.70;49.40;;;;;;4986121;28;19918;-63
2022/01/01 07:13:54;;;;;;;;;;;22.70;49.40;;;;;;4955284;29;19911;-63
2022/01/01 07:16:22;;;;;;;;;;;22.70;49.40;;;;;;4954235;29;20299;-63
2022/01/01 07:18:48;;;;;;;;;;;22.70;49.50;;;;;;4954701;28;19914;-63
2022/01/01 07:21:13;;;;;;;;;;;22.70;49.50;;;;;;4954267;29;20456;-63
2022/01/01 07:23:39;;;;;;;;;;;22.70;49.40;;;;;;4936312;29;19973;-63
2022/01/01 07:26:04;;;;;;;;;;;22.70;49.40;;;;;;4953360;29;19911;-63
2022/01/01 07:28:30;;;;;;;;;;;22.60;49.30;;;;;;4953171;29;20066;-63
2022/01/01 07:30:55;;;;;;;;;;;22.70;49.40;;;;;;4954420;29;19921;-63
2022/01/01 07:33:21;;;;;;;;;;;22.70;49.40;;;;;;4954699;29;19910;-63
2022/01/01 07:35:46;;;;;;;;;;;22.70;49.40;;;;;;4954166;29;19922;-63
2022/01/01 07:38:12;;;;;;;;;;;22.70;49.30;;;;;;4985012;28;19915;-63
2022/01/01 07:40:39;;;;;;;;;;;22.70;49.30;;;;;;4954317;29;20005;-63
2022/01/01 07:43:11;;;;;;;;;;;22.70;49.40;;;;;;4954157;28;20295;-63
2022/01/01 07:45:37;;;;;;;;;;;22.70;49.40;;;;;;4954687;28;20363;-63
2022/01/01 07:48:02;;;;;;;;;;;22.70;49.40;;;;;;4954063;29;19918;-63
2022/01/01 07:50:28;;;;;;;;;;;22.70;49.40;;;;;;4954521;28;19918;-63
2022/01/01 07:52:53;;;;;;;;;;;22.60;49.40;;;;;;4968233;28;20343;-63
2022/01/01 07:55:19;;;;;;;;;;;22.60;49.30;;;;;;4954229;29;20263;-63
2022/01/01 07:57:44;;;;;;;;;;;22.70;49.50;;;;;;4953953;29;19978;-63
2022/01/01 08:00:10;;;;;;;;;;;22.60;49.50;;;;;;4953358;28;20378;-63
2022/01/01 08:02:39;;;;;;;;;;;22.60;49.50;;;;;;4954186;28;19910;-63
2022/01/01 08:05:05;;;;;;;;;;;22.60;49.40;;;;;;4952817;28;19969;-63
2022/01/01 08:07:30;;;;;;;;;;;22.60;49.30;;;;;;4953045;28;19914;-63
2022/01/01 08:09:55;;;;;;;;;;;22.70;49.40;;;;;;4953607;28;19930;-63
2022/01/01 08:12:21;;;;;;;;;;;22.70;49.40;;;;;;4953668;29;19937;-63
2022/01/01 08:14:46;;;;;;;;;;;22.70;49.40;;;;;;4952309;29;19999;-63
2022/01/01 08:17:12;;;;;;;;;;;22.70;49.40;;;;;;4952210;29;19965;-63
2022/01/01 08:19:38;;;;;;;;;;;22.70;49.40;;;;;;4952384;29;19914;-63
2022/01/01 08:22:04;;;;;;;;;;;22.60;49.30;;;;;;4953027;28;19915;-62
2022/01/01 08:24:29;;;;;;;;;;;22.60;49.40;;;;;;4954092;28;20295;-63
2022/01/01 08:26:55;;;;;;;;;;;22.60;49.40;;;;;;4953135;29;19922;-63
2022/01/01 08:29:21;;;;;;;;;;;22.60;49.40;;;;;;4951971;29;19922;-63
2022/01/01 08:31:46;;;;;;;;;;;22.60;49.40;;;;;;4953639;29;20287;-63
2022/01/01 08:34:12;;;;;;;;;;;22.60;49.40;;;;;;4953201;29;19946;-63
2022/01/01 08:36:37;;;;;;;;;;;22.60;49.30;;;;;;4952455;29;20316;-63
2022/01/01 08:39:05;;;;;;;;;;;22.70;49.40;;;;;;4951931;28;20334;-63
2022/01/01 08:41:31;;;;;;;;;;;22.60;49.30;;;;;;4968100;28;19910;-62
2022/01/01 08:43:56;;;;;;;;;;;22.70;49.40;;;;;;4953293;28;19925;-63
2022/01/01 08:46:22;;;;;;;;;;;22.60;49.40;;;;;;4984611;28;19997;-63
2022/01/01 08:48:47;;;;;;;;;;;22.60;49.40;;;;;;4984718;28;19957;-63
2022/01/01 08:51:12;;;;;;;;;;;22.60;49.40;;;;;;4952735;29;19961;-63
2022/01/01 08:53:38;;;;;;;;;;;22.60;49.40;;;;;;4946076;29;19919;-63
2022/01/01 08:56:07;;;;;;;;;;;22.60;49.30;;;;;;4934493;29;19914;-63
2022/01/01 08:58:33;;;;;;;;;;;22.60;49.40;;;;;;4951838;29;19926;-63
2022/01/01 09:00:59;;;;;;;;;;;22.60;49.40;;;;;;4952984;28;19918;-63
2022/01/01 09:03:24;;;;;;;;;;;22.60;49.40;;;;;;4942519;29;20285;-63
2022/01/01 09:05:50;;;;;;;;;;;22.60;49.40;;;;;;4934518;29;19943;-63
2022/01/01 09:08:15;;;;;;;;;;;22.60;49.50;;;;;;4952986;29;19965;-63
2022/01/01 09:10:40;;;;;;;;;;;22.60;49.40;;;;;;4953171;28;19918;-62
2022/01/01 09:13:06;;;;;;;;;;;22.60;49.30;;;;;;4953411;29;19981;-63
2022/01/01 09:15:31;;;;;;;;;;;22.70;49.40;;;;;;4953150;29;19942;-63
2022/01/01 09:17:57;;;;;;;;;;;22.60;49.30;;;;;;4952866;29;19915;-63
2022/01/01 09:20:22;;;;;;;;;;;22.60;49.30;;;;;;4952788;29;19914;-63
2022/01/01 09:22:48;;;;;;;;;;;22.60;49.30;;;;;;4954928;28;19973;-63
2022/01/01 09:25:13;;;;;;;;;;;22.60;49.30;;;;;;4956339;29;19918;-63
2022/01/01 09:27:39;;;;;;;;;;;22.60;49.30;;;;;;4955641;28;19915;-63
2022/01/01 09:30:04;;;;;;;;;;;22.70;49.30;;;;;;4956843;28;20264;-63
2022/01/01 09:32:30;;;;;;;;;;;22.70;49.30;;;;;;4956718;28;20053;-63
2022/01/01 09:34:55;;;;;;;;;;;22.70;49.40;;;;;;4956806;29;20028;-63
2022/01/01 09:37:21;;;;;;;;;;;22.70;49.30;;;;;;4955824;29;19922;-63
2022/01/01 09:39:47;;;;;;;;;;;22.70;49.30;;;;;;4956563;28;19925;-63
2022/01/01 09:42:12;;;;;;;;;;;22.60;49.20;;;;;;4956858;28;20246;-63
2022/01/01 09:44:38;;;;;;;;;;;22.60;49.30;;;;;;4987532;28;20013;-63
2022/01/01 09:47:03;;;;;;;;;;;22.70;49.40;;;;;;4956030;29;19919;-63
2022/01/01 09:49:29;;;;;;;;;;;22.70;49.40;;;;;;4971186;28;20404;-63
2022/01/01 09:51:54;;;;;;;;;;;22.60;49.30;;;;;;4955728;29;19950;-63
2022/01/01 09:54:19;;;;;;;;;;;22.60;49.40;;;;;;4956396;29;19918;-63
2022/01/01 09:56:45;;;;;;;;;;;22.60;49.40;;;;;;4956258;29;19969;-63
2022/01/01 09:59:12;;;;;;;;;;;22.60;49.30;;;;;;4956136;29;19920;-63
2022/01/01 10:01:37;;;;;;;;;;;22.60;49.30;;;;;;4987126;28;19915;-63
2022/01/01 10:04:10;;;;;;;;;;;22.70;49.40;;;;;;4955352;29;19919;-63
2022/01/01 10:06:36;;;;;;;;;;;22.70;49.40;;;;;;4955495;28;19937;-63
2022/01/01 10:09:06;;;;;;;;;;;22.70;49.40;;;;;;4955842;29;19993;-63
2022/01/01 10:11:33;;;;;;;;;;;22.60;49.30;;;;;;4955472;29;19925;-63
2022/01/01 10:13:59;;;;;;;;;;;22.60;49.30;;;;;;4956208;28;19926;-63
2022/01/01 10:16:24;;;;;;;;;;;22.60;49.40;;;;;;4981770;28;19911;-63
2022/01/01 10:18:53;;;;;;;;;;;22.60;49.40;;;;;;4941072;29;19966;-63
2022/01/01 10:21:22;;;;;;;;;;;22.60;49.30;;;;;;4955282;28;20402;-63
2022/01/01 10:23:49;;;;;;;;;;;22.60;49.40;;;;;;4956044;28;19925;-63
2022/01/01 10:29:13;;;;;;;;;;;22.70;49.50;;;;;;4962364;28;19962;-63
2022/01/01 10:31:39;;;;;;;;;;;22.60;49.40;;;;;;4955706;29;19941;-63
2022/01/01 10:34:12;;;;;;;;;;;22.60;49.40;;;;;;4955334;28;19914;-63
2022/01/01 10:36:37;;;;;;;;;;;22.70;49.50;;;;;;4951956;29;19945;-64
2022/01/01 10:39:09;;;;;;;;;;;22.70;49.40;;;;;;4950771;29;19918;-64
2022/01/01 10:41:47;;;;;;;;;;;22.70;49.40;;;;;;4952511;28;19919;-63
2022/01/01 10:44:12;;;;;;;;;;;22.60;49.50;;;;;;4955748;29;19953;-63
2022/01/01 10:46:38;;;;;;;;;;;22.60;49.50;;;;;;4966549;28;19950;-63
2022/01/01 10:49:32;;;;;;;;;;;22.60;49.60;;;;;;4947038;29;20013;-63
2022/01/01 10:52:16;;;;;;;;;;;22.60;49.60;;;;;;4979411;28;19978;-63
2022/01/01 10:54:48;;;;;;;;;;;22.60;49.60;;;;;;4951098;29;20005;-63
2022/01/01 10:57:13;;;;;;;;;;;22.60;49.60;;;;;;4954983;28;20327;-63
2022/01/01 10:59:39;;;;;;;;;;;22.60;49.60;;;;;;4946816;29;19969;-63
2022/01/01 11:02:06;;;;;;;;;;;22.60;49.60;;;;;;4954822;28;19914;-63
2022/01/01 11:04:32;;;;;;;;;;;22.60;49.60;;;;;;4955433;28;20008;-63
2022/01/01 11:06:58;;;;;;;;;;;22.60;49.60;;;;;;4968693;28;20005;-63
2022/01/01 11:09:23;;;;;;;;;;;22.60;49.50;;;;;;4939602;29;20070;-63
2022/01/01 11:11:49;;;;;;;;;;;22.60;49.40;;;;;;4952901;29;20013;-63
2022/01/01 11:14:14;;;;;;;;;;;22.60;49.40;;;;;;4954815;28;19967;-64
2022/01/01 11:16:41;;;;;;;;;;;22.60;49.30;;;;;;4968701;28;19953;-63
2022/01/01 11:19:06;;;;;;;;;;;22.60;49.30;;;;;;4967065;28;19911;-63
2022/01/01 11:21:32;;;;;;;;;;;22.60;49.30;;;;;;4954300;29;20287;-63
2022/01/01 11:23:57;;;;;;;;;;;22.70;49.40;;;;;;4952851;28;20295;-63
2022/01/01 11:26:24;;;;;;;;;;;22.70;49.30;;;;;;4952113;29;20422;-63
2022/01/01 11:28:49;;;;;;;;;;;22.70;49.30;;;;;;4950409;28;20010;-63
2022/01/01 11:31:15;;;;;;;;;;;22.70;49.20;;;;;;4941699;28;19998;-63
2022/01/01 11:33:42;;;;;;;;;;;22.70;49.20;;;;;;4951598;28;19942;-63
2022/01/01 11:36:07;;;;;;;;;;;22.70;49.20;;;;;;4976151;28;19929;-64
2022/01/01 11:38:35;;;;;;;;;;;22.70;49.20;;;;;;4951727;29;19918;-63
2022/01/01 11:41:07;;;;;;;;;;;22.70;49.10;;;;;;4953176;28;19946;-63
2022/01/01 11:43:48;;;;;;;;;;;22.70;49.10;;;;;;4951928;29;19919;-64
2022/01/01 11:46:14;;;;;;;;;;;22.70;49.10;;;;;;4952922;28;19998;-63
2022/01/01 11:48:41;;;;;;;;;;;22.70;49.10;;;;;;4984288;28;19915;-63
2022/01/01 11:51:22;;;;;;;;;;;22.70;49.10;;;;;;4978921;28;20290;-63
2022/01/01 11:54:06;;;;;;;;;;;22.70;49.10;;;;;;4952575;28;19941;-63
2022/01/01 11:56:46;;;;;;;;;;;22.70;49.10;;;;;;4951375;29;20676;-63
2022/01/01 11:59:18;;;;;;;;;;;22.70;49.10;;;;;;4948078;29;19915;-63
2022/01/01 12:01:44;;;;;;;;;;;22.70;49.10;;;;;;4952708;29;20013;-63
2022/01/01 12:04:23;;;;;;;;;;;22.70;49.10;;;;;;4951737;28;19922;-63
2022/01/01 12:06:57;;;;;;;;;;;22.70;49.10;;;;;;4952066;29;19925;-63
2022/01/01 12:09:22;;;;;;;;;;;22.70;49.00;;;;;;4953720;28;19923;-63
2022/01/01 12:11:57;;;;;;;;;;;22.70;49.70;;;;;;4952572;29;19962;-63
2022/01/01 12:14:26;;;;;;;;;;;22.70;49.00;;;;;;4984466;28;20302;-63
2022/01/01 12:16:52;;;;;;;;;;;22.70;49.00;;;;;;4953651;28;19914;-64
2022/01/01 12:19:19;;;;;;;;;;;22.70;49.00;;;;;;4984587;28;20008;-63
2022/01/01 12:21:44;;;;;;;;;;;22.70;49.00;;;;;;4984324;28;19910;-63
2022/01/01 12:24:16;;;;;;;;;;;22.70;49.00;;;;;;4953277;29;19914;-63
2022/01/01 12:26:42;;;;;;;;;;;22.70;48.90;;;;;;4953474;28;19918;-63
2022/01/01 12:29:09;;;;;;;;;;;22.70;49.00;;;;;;4984733;28;19926;-63
2022/01/01 12:31:34;;;;;;;;;;;22.70;49.00;;;;;;4953017;28;20394;-63
2022/01/01 12:34:09;;;;;;;;;;;22.70;49.00;;;;;;4985042;28;19910;-63
2022/01/01 12:36:35;;;;;;;;;;;22.70;49.00;;;;;;4952558;28;19973;-63
2022/01/01 12:39:02;;;;;;;;;;;22.70;48.90;;;;;;4984816;28;19914;-63
2022/01/01 12:41:35;;;;;;;;;;;22.70;48.90;;;;;;4953446;28;19921;-63
2022/01/01 12:44:04;;;;;;;;;;;22.70;48.90;;;;;;4953845;28;19911;-63
2022/01/01 12:46:38;;;;;;;;;;;22.70;48.90;;;;;;4967959;28;19922;-63
2022/01/01 12:49:04;;;;;;;;;;;22.70;49.00;;;;;;4969411;28;19914;-63
2022/01/01 12:51:30;;;;;;;;;;;22.70;49.00;;;;;;4952428;28;19918;-63
2022/01/01 12:53:59;;;;;;;;;;;22.70;49.00;;;;;;4945306;28;19922;-63
2022/01/01 12:56:25;;;;;;;;;;;22.80;49.10;;;;;;4948922;29;20370;-63
2022/01/01 12:58:52;;;;;;;;;;;22.80;49.10;;;;;;4953120;28;20002;-63
2022/01/01 13:01:24;;;;;;;;;;;22.70;49.10;;;;;;4950745;28;19934;-63
2022/01/01 13:03:50;;;;;;;;;;;22.70;49.20;;;;;;4966984;28;20291;-63
2022/01/01 13:06:19;;;;;;;;;;;22.80;49.20;;;;;;4983426;28;19914;-63
2022/01/01 13:08:45;;;;;;;;;;;22.70;49.40;;;;;;4952617;28;19929;-63
2022/01/01 13:11:12;;;;;;;;;;;22.70;49.60;;;;;;4952878;29;20427;-63
2022/01/01 13:13:37;;;;;;;;;;;22.70;49.70;;;;;;4952133;28;20279;-63
2022/01/01 13:16:03;;;;;;;;;;;22.70;49.80;;;;;;4949534;29;19919;-63
2022/01/01 13:18:29;;;;;;;;;;;22.70;50.00;;;;;;4953234;28;19919;-63
2022/01/01 13:20:54;;;;;;;;;;;22.70;50.10;;;;;;4948999;29;20378;-63
2022/01/01 13:23:22;;;;;;;;;;;22.70;50.20;;;;;;4950885;29;20013;-63
2022/01/01 13:25:48;;;;;;;;;;;22.70;50.20;;;;;;4940735;28;19964;-63
2022/01/01 13:28:14;;;;;;;;;;;22.70;50.50;;;;;;4947393;28;19918;-63
2022/01/01 13:30:41;;;;;;;;;;;22.70;50.70;;;;;;4946280;29;19914;-64
2022/01/01 13:33:06;;;;;;;;;;;22.70;50.80;;;;;;4967670;28;19910;-63
2022/01/01 13:35:31;;;;;;;;;;;22.70;50.60;;;;;;4952828;28;20010;-63
2022/01/01 13:37:57;;;;;;;;;;;22.70;50.40;;;;;;4951788;29;19973;-63
2022/01/01 13:40:22;;;;;;;;;;;22.70;50.40;;;;;;4952902;29;19918;-63
2022/01/01 13:42:48;;;;;;;;;;;22.70;50.20;;;;;;4953017;29;19918;-63
2022/01/01 13:45:13;;;;;;;;;;;22.70;50.20;;;;;;4980864;28;19962;-63
2022/01/01 13:47:40;;;;;;;;;;;22.70;50.10;;;;;;4949261;29;19925;-63
2022/01/01 13:50:12;;;;;;;;;;;22.70;50.00;;;;;;4944662;29;19962;-63
2022/01/01 13:52:38;;;;;;;;;;;22.70;50.00;;;;;;4950439;29;19925;-64
2022/01/01 13:55:04;;;;;;;;;;;22.70;50.00;;;;;;4953209;29;19914;-63
2022/01/01 13:57:31;;;;;;;;;;;22.70;50.00;;;;;;4954286;28;19977;-63
2022/01/01 13:59:57;;;;;;;;;;;22.70;50.00;;;;;;4952472;28;19918;-63
2022/01/01 14:02:26;;;;;;;;;;;22.70;50.10;;;;;;4951680;28;19918;-63
2022/01/01 14:04:52;;;;;;;;;;;22.70;50.10;;;;;;4952373;28;19915;-63
2022/01/01 14:07:18;;;;;;;;;;;22.70;50.20;;;;;;4966456;28;19957;-63
2022/01/01 14:10:02;;;;;;;;;;;22.60;50.10;;;;;;4955549;29;19985;-63
2022/01/01 14:12:31;;;;;;;;;;;22.60;50.10;;;;;;4955214;29;19926;-63
2022/01/01 14:15:00;;;;;;;;;;;22.60;50.20;;;;;;4948671;28;20442;-63
2022/01/01 14:17:25;;;;;;;;;;;22.60;50.20;;;;;;4944388;28;19995;-63
2022/01/01 14:19:51;;;;;;;;;;;22.50;50.20;;;;;;4956275;28;19919;-63